createdAt,value
2023-05-20T00:00:30.052Z,24.18
2023-05-20T00:01:30.121Z,24.18
2023-05-20T00:02:30.229Z,24.18
2023-05-20T00:03:30.291Z,24.18
2023-05-20T00:04:30.298Z,24.17
2023-05-20T00:05:30.254Z,24.18
2023-05-20T00:06:30.279Z,24.18
2023-05-20T00:07:30.278Z,24.18
2023-05-20T00:08:30.314Z,24.18
2023-05-20T00:09:30.357Z,24.18
2023-05-20T00:10:30.385Z,24.18
2023-05-20T00:11:30.387Z,24.18
2023-05-20T00:12:30.457Z,24.19
2023-05-20T00:13:30.485Z,24.19
2023-05-20T00:14:30.530Z,24.19
2023-05-20T00:15:30.548Z,24.20
2023-05-20T00:16:30.715Z,24.19
2023-05-20T00:17:30.728Z,24.20
2023-05-20T00:18:30.684Z,24.21
2023-05-20T00:19:30.724Z,24.21
2023-05-20T00:20:30.746Z,24.22
2023-05-20T00:21:30.772Z,24.22
2023-05-20T00:22:30.784Z,24.22
2023-05-20T00:23:30.838Z,24.22
2023-05-20T00:24:30.916Z,24.23
2023-05-20T00:25:30.957Z,24.22
2023-05-20T00:26:31.012Z,24.22
2023-05-20T00:27:30.989Z,24.22
2023-05-20T00:28:31.035Z,24.21
2023-05-20T00:29:31.072Z,24.21
2023-05-20T00:30:31.102Z,24.21
2023-05-20T00:31:31.163Z,24.20
2023-05-20T00:32:31.231Z,24.20
2023-05-20T00:33:31.219Z,24.21
2023-05-20T00:34:31.258Z,24.22
2023-05-20T00:35:31.301Z,24.21
2023-05-20T00:36:31.319Z,24.22
2023-05-20T00:37:31.349Z,24.21
2023-05-20T00:38:31.383Z,24.22
2023-05-20T00:39:31.426Z,24.22
2023-05-20T00:40:31.448Z,24.21
2023-05-20T00:41:31.494Z,24.21
2023-05-20T00:42:31.524Z,24.21
2023-05-20T00:43:31.570Z,24.20
2023-05-20T00:44:31.601Z,24.20
2023-05-20T00:45:31.777Z,24.20
2023-05-20T00:46:31.733Z,24.20
2023-05-20T00:47:31.755Z,24.21
2023-05-20T00:48:31.761Z,24.20
2023-05-20T00:49:31.805Z,24.20
2023-05-20T00:50:31.846Z,24.21
2023-05-20T00:51:31.875Z,24.20
2023-05-20T00:52:31.924Z,24.22
2023-05-20T00:53:31.911Z,24.22
2023-05-20T00:54:31.971Z,24.21
2023-05-20T00:55:32.325Z,24.21
2023-05-20T00:56:32.049Z,24.21
2023-05-20T00:57:32.088Z,24.21
2023-05-20T00:58:32.126Z,24.22
2023-05-20T00:59:32.137Z,24.21
2023-05-20T01:00:32.196Z,24.21
2023-05-20T01:01:32.271Z,24.20
2023-05-20T01:02:32.324Z,24.20
2023-05-20T01:03:32.396Z,24.21
2023-05-20T01:04:32.310Z,24.21
2023-05-20T01:05:32.548Z,24.21
2023-05-20T01:06:32.384Z,24.20
2023-05-20T01:07:32.443Z,24.19
2023-05-20T01:08:32.475Z,24.19
2023-05-20T01:09:32.518Z,24.18
2023-05-20T01:10:32.580Z,24.18
2023-05-20T01:11:32.624Z,24.18
2023-05-20T01:12:32.675Z,24.18
2023-05-20T01:13:32.679Z,24.18
2023-05-20T01:14:32.715Z,24.18
2023-05-20T01:15:32.831Z,24.18
2023-05-20T01:16:32.818Z,24.18
2023-05-20T01:17:32.903Z,24.18
2023-05-20T01:18:32.914Z,24.19
2023-05-20T01:19:32.930Z,24.20
2023-05-20T01:20:33.043Z,24.20
2023-05-20T01:21:32.998Z,24.20
2023-05-20T01:22:33.011Z,24.20
2023-05-20T01:23:33.083Z,24.20
2023-05-20T01:24:33.091Z,24.20
2023-05-20T01:25:33.213Z,24.20
2023-05-20T01:26:33.193Z,24.20
2023-05-20T01:27:33.226Z,24.20
2023-05-20T01:28:33.254Z,24.20
2023-05-20T01:29:33.302Z,24.19
2023-05-20T01:30:33.344Z,24.20
2023-05-20T01:31:33.400Z,24.19
2023-05-20T01:32:33.487Z,24.19
2023-05-20T01:33:33.503Z,24.19
2023-05-20T01:34:33.505Z,24.18
2023-05-20T01:35:33.704Z,24.17
2023-05-20T01:36:33.542Z,24.17
2023-05-20T01:37:33.586Z,24.16
2023-05-20T01:38:33.649Z,24.17
2023-05-20T01:39:33.691Z,24.17
2023-05-20T01:40:33.708Z,24.18
2023-05-20T01:41:33.752Z,24.18
2023-05-20T01:42:33.784Z,24.17
2023-05-20T01:43:33.839Z,24.17
2023-05-20T01:44:33.910Z,24.17
2023-05-20T01:45:34.224Z,24.16
2023-05-20T01:46:33.997Z,24.18
2023-05-20T01:47:34.034Z,24.17
2023-05-20T01:48:34.087Z,24.16
2023-05-20T01:49:34.126Z,24.15
2023-05-20T01:50:34.169Z,24.15
2023-05-20T01:51:34.186Z,24.14
2023-05-20T01:52:34.212Z,24.14
2023-05-20T01:53:34.288Z,24.14
2023-05-20T01:54:34.312Z,24.13
2023-05-20T01:55:34.657Z,24.13
2023-05-20T01:56:34.389Z,24.13
2023-05-20T01:57:34.446Z,24.13
2023-05-20T01:58:34.514Z,24.12
2023-05-20T01:59:34.528Z,24.11
2023-05-20T02:00:34.596Z,24.11
2023-05-20T02:01:34.608Z,24.11
2023-05-20T02:02:34.801Z,24.10
2023-05-20T02:03:34.716Z,24.09
2023-05-20T02:04:34.798Z,24.09
2023-05-20T02:05:35.054Z,24.10
2023-05-20T02:06:34.883Z,24.10
2023-05-20T02:07:34.956Z,24.09
2023-05-20T02:08:34.981Z,24.10
2023-05-20T02:09:35.013Z,24.10
2023-05-20T02:10:35.092Z,24.11
2023-05-20T02:11:35.113Z,24.11
2023-05-20T02:12:35.134Z,24.11
2023-05-20T02:13:35.194Z,24.12
2023-05-20T02:14:35.275Z,24.13
2023-05-20T02:15:35.524Z,24.13
2023-05-20T02:16:35.437Z,24.11
2023-05-20T02:17:35.456Z,24.09
2023-05-20T02:18:35.471Z,24.08
2023-05-20T02:19:35.484Z,24.07
2023-05-20T02:20:35.530Z,24.08
2023-05-20T02:21:35.562Z,24.08
2023-05-20T02:22:35.655Z,24.08
2023-05-20T02:23:35.697Z,24.07
2023-05-20T02:24:35.757Z,24.08
2023-05-20T02:25:35.894Z,24.08
2023-05-20T02:26:35.873Z,24.08
2023-05-20T02:27:35.889Z,24.08
2023-05-20T02:28:35.942Z,24.08
2023-05-20T02:29:35.998Z,24.06
2023-05-20T02:30:36.035Z,24.05
2023-05-20T02:31:36.094Z,24.03
2023-05-20T02:32:36.197Z,24.01
2023-05-20T02:33:36.221Z,24.01
2023-05-20T02:34:36.248Z,24.00
2023-05-20T02:35:36.323Z,24.00
2023-05-20T02:36:36.353Z,24.02
2023-05-20T02:37:36.356Z,24.01
2023-05-20T02:38:36.461Z,24.02
2023-05-20T02:39:36.473Z,24.03
2023-05-20T02:40:36.558Z,24.02
2023-05-20T02:41:36.562Z,24.03
2023-05-20T02:42:36.636Z,24.05
2023-05-20T02:43:36.645Z,24.04
2023-05-20T02:44:36.727Z,24.05
2023-05-20T02:45:36.824Z,24.03
2023-05-20T02:46:36.887Z,24.04
2023-05-20T02:47:36.929Z,24.04
2023-05-20T02:48:36.921Z,24.02
2023-05-20T02:49:36.961Z,24.02
2023-05-20T02:50:36.996Z,24.02
2023-05-20T02:51:37.064Z,24.02
2023-05-20T02:52:37.115Z,24.02
2023-05-20T02:53:37.170Z,24.02
2023-05-20T02:54:37.237Z,24.02
2023-05-20T02:55:37.301Z,24.02
2023-05-20T02:56:37.328Z,24.03
2023-05-20T02:57:37.363Z,24.03
2023-05-20T02:58:37.440Z,24.03
2023-05-20T02:59:37.457Z,24.03
2023-05-20T03:00:37.511Z,24.06
2023-05-20T03:01:37.604Z,24.04
2023-05-20T03:02:37.713Z,24.05
2023-05-20T03:03:37.648Z,24.05
2023-05-20T03:04:37.743Z,24.06
2023-05-20T03:05:37.907Z,24.06
2023-05-20T03:06:37.823Z,24.07
2023-05-20T03:07:37.864Z,24.07
2023-05-20T03:08:37.950Z,24.07
2023-05-20T03:09:37.984Z,24.08
2023-05-20T03:10:38.032Z,24.08
2023-05-20T03:11:38.083Z,24.08
2023-05-20T03:12:38.119Z,24.09
2023-05-20T03:13:38.136Z,24.09
2023-05-20T03:14:38.190Z,24.09
2023-05-20T03:15:38.318Z,24.09
2023-05-20T03:16:38.339Z,24.09
2023-05-20T03:17:38.390Z,24.09
2023-05-20T03:18:38.386Z,24.09
2023-05-20T03:19:38.412Z,24.10
2023-05-20T03:20:38.494Z,24.09
2023-05-20T03:21:38.481Z,24.08
2023-05-20T03:22:38.472Z,24.06
2023-05-20T03:23:38.540Z,24.02
2023-05-20T03:24:38.572Z,24.00
2023-05-20T03:25:38.660Z,24.00
2023-05-20T03:26:38.686Z,23.99
2023-05-20T03:27:38.748Z,23.99
2023-05-20T03:28:38.825Z,23.98
2023-05-20T03:29:38.863Z,23.98
2023-05-20T03:30:38.914Z,23.97
2023-05-20T03:31:39.012Z,23.99
2023-05-20T03:32:39.047Z,23.98
2023-05-20T03:33:39.079Z,23.98
2023-05-20T03:34:39.118Z,23.98
2023-05-20T03:35:39.172Z,24.00
2023-05-20T03:36:39.254Z,24.00
2023-05-20T03:37:39.262Z,24.00
2023-05-20T03:38:39.330Z,24.01
2023-05-20T03:39:39.366Z,24.02
2023-05-20T03:40:39.446Z,24.02
2023-05-20T03:41:39.447Z,24.01
2023-05-20T03:42:39.515Z,24.00
2023-05-20T03:43:39.596Z,24.01
2023-05-20T03:44:39.619Z,23.99
2023-05-20T03:45:39.691Z,24.00
2023-05-20T03:46:39.835Z,24.00
2023-05-20T03:47:39.832Z,24.01
2023-05-20T03:48:39.821Z,24.01
2023-05-20T03:49:39.858Z,24.02
2023-05-20T03:50:39.941Z,24.02
2023-05-20T03:51:39.959Z,24.03
2023-05-20T03:52:40.013Z,24.02
2023-05-20T03:53:40.056Z,24.03
2023-05-20T03:54:40.114Z,24.03
2023-05-20T03:55:40.176Z,24.04
2023-05-20T03:56:40.253Z,24.03
2023-05-20T03:57:40.286Z,24.05
2023-05-20T03:58:40.318Z,24.05
2023-05-20T03:59:40.372Z,24.04
2023-05-20T04:00:40.438Z,24.05
2023-05-20T04:01:40.494Z,24.06
2023-05-20T04:02:40.586Z,24.05
2023-05-20T04:03:40.715Z,24.06
2023-05-20T04:04:40.646Z,24.06
2023-05-20T04:05:40.678Z,24.05
2023-05-20T04:06:40.717Z,24.07
2023-05-20T04:07:40.798Z,24.07
2023-05-20T04:08:40.831Z,24.07
2023-05-20T04:09:40.891Z,24.08
2023-05-20T04:10:40.961Z,24.07
2023-05-20T04:11:41.009Z,24.08
2023-05-20T04:12:41.039Z,24.07
2023-05-20T04:13:41.091Z,24.08
2023-05-20T04:14:41.153Z,24.08
2023-05-20T04:15:41.181Z,24.08
2023-05-20T04:16:41.288Z,24.08
2023-05-20T04:17:41.310Z,24.08
2023-05-20T04:18:41.376Z,24.07
2023-05-20T04:19:41.391Z,24.09
2023-05-20T04:20:41.456Z,24.09
2023-05-20T04:21:41.511Z,24.09
2023-05-20T04:22:41.544Z,24.08
2023-05-20T04:23:41.592Z,24.09
2023-05-20T04:24:41.659Z,24.09
2023-05-20T04:25:41.713Z,24.09
2023-05-20T04:26:41.735Z,24.09
2023-05-20T04:27:41.752Z,24.09
2023-05-20T04:28:41.802Z,24.10
2023-05-20T04:29:41.828Z,24.10
2023-05-20T04:30:41.810Z,24.11
2023-05-20T04:31:41.942Z,24.10
2023-05-20T04:32:41.918Z,24.10
2023-05-20T04:33:41.929Z,24.11
2023-05-20T04:34:41.904Z,24.11
2023-05-20T04:35:41.953Z,24.10
2023-05-20T04:36:41.954Z,24.10
2023-05-20T04:37:41.989Z,24.11
2023-05-20T04:38:42.020Z,24.10
2023-05-20T04:39:42.015Z,24.11
2023-05-20T04:40:42.049Z,24.11
2023-05-20T04:41:42.091Z,24.11
2023-05-20T04:42:42.179Z,24.11
2023-05-20T04:43:42.096Z,24.11
2023-05-20T04:44:42.474Z,24.11
2023-05-20T04:45:42.208Z,24.11
2023-05-20T04:46:42.229Z,24.12
2023-05-20T04:47:42.400Z,24.11
2023-05-20T04:48:42.328Z,24.11
2023-05-20T04:49:42.400Z,24.12
2023-05-20T04:50:42.460Z,24.12
2023-05-20T04:51:42.490Z,24.13
2023-05-20T04:52:42.526Z,24.13
2023-05-20T04:53:44.719Z,24.12
2023-05-20T04:54:42.599Z,24.13
2023-05-20T04:55:42.573Z,24.13
2023-05-20T04:56:42.564Z,24.14
2023-05-20T04:57:42.826Z,24.14
2023-05-20T04:58:42.562Z,24.14
2023-05-20T04:59:42.598Z,24.14
2023-05-20T05:00:42.604Z,24.14
2023-05-20T05:01:42.746Z,24.14
2023-05-20T05:02:42.614Z,24.15
2023-05-20T05:03:42.615Z,24.14
2023-05-20T05:04:42.623Z,24.14
2023-05-20T05:05:42.627Z,24.15
2023-05-20T05:06:42.642Z,24.15
2023-05-20T05:07:42.648Z,24.14
2023-05-20T05:08:42.637Z,24.14
2023-05-20T05:09:42.640Z,24.14
2023-05-20T05:10:42.656Z,24.14
2023-05-20T05:11:42.656Z,24.14
2023-05-20T05:12:42.623Z,24.14
2023-05-20T05:13:42.657Z,24.15
2023-05-20T05:14:42.649Z,24.15
2023-05-20T05:15:42.750Z,24.15
2023-05-20T05:16:42.680Z,24.16
2023-05-20T05:17:42.729Z,24.16
2023-05-20T05:18:42.725Z,24.16
2023-05-20T05:19:42.679Z,24.16
2023-05-20T05:20:42.682Z,24.16
2023-05-20T05:21:42.689Z,24.17
2023-05-20T05:22:42.688Z,24.17
2023-05-20T05:23:42.693Z,24.17
2023-05-20T05:24:42.661Z,24.17
2023-05-20T05:25:42.701Z,24.18
2023-05-20T05:26:42.718Z,24.18
2023-05-20T05:27:42.713Z,24.17
2023-05-20T05:28:42.691Z,24.18
2023-05-20T05:29:42.690Z,24.17
2023-05-20T05:30:42.701Z,24.17
2023-05-20T05:31:42.710Z,24.18
2023-05-20T05:32:42.737Z,24.18
2023-05-20T05:33:42.722Z,24.17
2023-05-20T05:34:42.705Z,24.18
2023-05-20T05:35:42.695Z,24.18
2023-05-20T05:36:42.713Z,24.19
2023-05-20T05:37:42.701Z,24.18
2023-05-20T05:38:42.734Z,24.18
2023-05-20T05:39:42.717Z,24.18
2023-05-20T05:40:42.721Z,24.18
2023-05-20T05:41:42.696Z,24.18
2023-05-20T05:42:42.707Z,24.18
2023-05-20T05:43:42.735Z,24.19
2023-05-20T05:44:42.700Z,24.18
2023-05-20T05:45:42.710Z,24.18
2023-05-20T05:46:42.729Z,24.19
2023-05-20T05:47:42.799Z,24.18
2023-05-20T05:48:42.779Z,24.19
2023-05-20T05:49:42.807Z,24.19
2023-05-20T05:50:42.845Z,24.20
2023-05-20T05:51:42.890Z,24.20
2023-05-20T05:52:42.956Z,24.19
2023-05-20T05:53:42.974Z,24.18
2023-05-20T05:54:43.006Z,24.17
2023-05-20T05:55:43.070Z,24.15
2023-05-20T05:56:43.103Z,24.14
2023-05-20T05:57:43.133Z,24.14
2023-05-20T05:58:43.187Z,24.14
2023-05-20T05:59:43.241Z,24.13
2023-05-20T06:00:43.320Z,24.14
2023-05-20T06:01:43.374Z,24.12
2023-05-20T06:02:43.489Z,24.09
2023-05-20T06:03:43.582Z,24.06
2023-05-20T06:04:43.501Z,24.02
2023-05-20T06:05:43.546Z,24.00
2023-05-20T06:06:43.591Z,24.00
2023-05-20T06:07:43.647Z,23.98
2023-05-20T06:08:43.711Z,23.98
2023-05-20T06:09:43.739Z,23.99
2023-05-20T06:10:43.792Z,23.99
2023-05-20T06:11:43.837Z,24.00
2023-05-20T06:12:43.885Z,24.01
2023-05-20T06:13:43.922Z,24.01
2023-05-20T06:14:43.982Z,24.03
2023-05-20T06:15:44.057Z,24.03
2023-05-20T06:16:44.180Z,24.02
2023-05-20T06:17:44.196Z,24.02
2023-05-20T06:18:44.184Z,24.03
2023-05-20T06:19:44.180Z,24.03
2023-05-20T06:20:44.244Z,24.04
2023-05-20T06:21:44.280Z,24.04
2023-05-20T06:22:44.285Z,24.02
2023-05-20T06:23:44.297Z,24.00
2023-05-20T06:24:44.299Z,24.00
2023-05-20T06:25:44.369Z,23.99
2023-05-20T06:26:44.416Z,23.99
2023-05-20T06:27:44.452Z,24.00
2023-05-20T06:28:44.503Z,23.99
2023-05-20T06:29:44.571Z,24.00
2023-05-20T06:30:44.619Z,24.00
2023-05-20T06:31:44.671Z,24.00
2023-05-20T06:32:44.764Z,24.00
2023-05-20T06:33:44.736Z,24.02
2023-05-20T06:34:44.832Z,24.02
2023-05-20T06:35:44.884Z,24.03
2023-05-20T06:36:44.935Z,24.03
2023-05-20T06:37:45.049Z,24.03
2023-05-20T06:38:45.006Z,24.05
2023-05-20T06:39:45.088Z,24.06
2023-05-20T06:40:45.137Z,24.07
2023-05-20T06:41:45.181Z,24.08
2023-05-20T06:42:45.190Z,24.08
2023-05-20T06:43:45.284Z,24.08
2023-05-20T06:44:45.315Z,24.10
2023-05-20T06:45:45.373Z,24.10
2023-05-20T06:46:45.580Z,24.10
2023-05-20T06:47:45.464Z,24.10
2023-05-20T06:48:45.525Z,24.08
2023-05-20T06:49:47.432Z,24.05
2023-05-20T06:50:45.622Z,24.06
2023-05-20T06:51:45.656Z,24.06
2023-05-20T06:52:45.719Z,24.08
2023-05-20T06:53:45.778Z,24.08
2023-05-20T06:54:45.792Z,24.09
2023-05-20T06:55:45.889Z,24.07
2023-05-20T06:56:45.899Z,24.08
2023-05-20T06:57:45.962Z,24.09
2023-05-20T06:58:46.020Z,24.08
2023-05-20T06:59:46.033Z,24.09
2023-05-20T07:00:46.087Z,24.09
2023-05-20T07:01:46.157Z,24.09
2023-05-20T07:02:46.274Z,24.08
2023-05-20T07:03:46.307Z,24.07
2023-05-20T07:04:46.272Z,24.06
2023-05-20T07:05:46.351Z,24.06
2023-05-20T07:06:46.386Z,24.05
2023-05-20T07:07:46.431Z,24.07
2023-05-20T07:08:46.474Z,24.07
2023-05-20T07:09:46.511Z,24.08
2023-05-20T07:10:46.604Z,24.05
2023-05-20T07:11:46.623Z,24.04
2023-05-20T07:12:46.685Z,24.03
2023-05-20T07:13:46.743Z,24.00
2023-05-20T07:14:46.788Z,23.98
2023-05-20T07:15:46.850Z,23.95
2023-05-20T07:16:46.884Z,23.94
2023-05-20T07:17:46.932Z,23.93
2023-05-20T07:18:47.004Z,23.93
2023-05-20T07:19:47.040Z,23.93
2023-05-20T07:20:47.096Z,23.92
2023-05-20T07:21:47.152Z,23.94
2023-05-20T07:22:47.212Z,23.95
2023-05-20T07:23:47.253Z,23.96
2023-05-20T07:24:47.324Z,23.99
2023-05-20T07:25:47.371Z,24.00
2023-05-20T07:26:47.493Z,23.99
2023-05-20T07:27:47.437Z,24.01
2023-05-20T07:28:47.517Z,24.00
2023-05-20T07:29:47.565Z,23.97
2023-05-20T07:30:47.631Z,23.95
2023-05-20T07:31:47.688Z,23.96
2023-05-20T07:32:47.705Z,23.97
2023-05-20T07:33:47.741Z,23.99
2023-05-20T07:34:47.833Z,24.00
2023-05-20T07:35:47.863Z,24.02
2023-05-20T07:36:47.909Z,24.03
2023-05-20T07:37:47.917Z,24.04
2023-05-20T07:38:56.848Z,24.04
2023-05-20T07:39:49.015Z,24.05
2023-05-20T07:40:47.988Z,24.05
2023-05-20T07:41:47.981Z,24.07
2023-05-20T07:42:48.007Z,24.08
2023-05-20T07:43:47.994Z,24.10
2023-05-20T07:44:47.991Z,24.11
2023-05-20T07:45:48.011Z,24.13
2023-05-20T07:46:48.001Z,24.14
2023-05-20T07:47:47.999Z,24.14
2023-05-20T07:48:47.982Z,24.16
2023-05-20T07:49:47.960Z,24.17
2023-05-20T07:50:47.960Z,24.17
2023-05-20T07:51:47.965Z,24.18
2023-05-20T07:52:56.644Z,24.20
2023-05-20T07:53:48.951Z,24.20
2023-05-20T07:54:47.953Z,24.21
2023-05-20T07:55:47.951Z,24.22
2023-05-20T07:56:47.982Z,24.23
2023-05-20T07:57:47.987Z,24.24
2023-05-20T07:58:47.945Z,24.24
2023-05-20T07:59:47.984Z,24.25
2023-05-20T08:00:47.952Z,24.26
2023-05-20T08:01:48.008Z,24.28
2023-05-20T08:02:48.132Z,24.28
2023-05-20T08:03:47.993Z,24.28
2023-05-20T08:04:47.947Z,24.28
2023-05-20T08:05:48.036Z,24.28
2023-05-20T08:06:47.943Z,24.29
2023-05-20T08:07:47.930Z,24.29
2023-05-20T08:08:47.906Z,24.29
2023-05-20T08:09:47.932Z,24.31
2023-05-20T08:10:47.926Z,24.31
2023-05-20T08:11:47.921Z,24.31
2023-05-20T08:12:47.944Z,24.32
2023-05-20T08:13:47.974Z,24.31
2023-05-20T08:14:48.021Z,24.32
2023-05-20T08:15:48.003Z,24.33
2023-05-20T08:16:48.095Z,24.33
2023-05-20T08:17:48.093Z,24.33
2023-05-20T08:18:48.094Z,24.34
2023-05-20T08:19:48.108Z,24.33
2023-05-20T08:20:48.169Z,24.34
2023-05-20T08:21:48.178Z,24.33
2023-05-20T08:22:48.210Z,24.34
2023-05-20T08:23:48.260Z,24.34
2023-05-20T08:24:48.310Z,24.34
2023-05-20T08:25:48.335Z,24.35
2023-05-20T08:26:49.222Z,24.34
2023-05-20T08:27:48.359Z,24.34
2023-05-20T08:28:48.377Z,24.35
2023-05-20T08:29:48.414Z,24.36
2023-05-20T08:30:48.462Z,24.36
2023-05-20T08:31:48.453Z,24.36
2023-05-20T08:32:48.517Z,24.37
2023-05-20T08:33:48.514Z,24.38
2023-05-20T08:34:48.500Z,24.39
2023-05-20T08:35:48.552Z,24.39
2023-05-20T08:36:48.579Z,24.40
2023-05-20T08:37:48.601Z,24.40
2023-05-20T08:38:48.639Z,24.41
2023-05-20T08:39:48.653Z,24.42
2023-05-20T08:40:48.670Z,24.42
2023-05-20T08:41:48.711Z,24.42
2023-05-20T08:42:48.748Z,24.43
2023-05-20T08:43:48.734Z,24.43
2023-05-20T08:44:48.785Z,24.44
2023-05-20T08:45:48.770Z,24.44
2023-05-20T08:46:48.920Z,24.45
2023-05-20T08:47:48.889Z,24.45
2023-05-20T08:48:48.840Z,24.45
2023-05-20T08:49:48.876Z,24.44
2023-05-20T08:50:48.895Z,24.45
2023-05-20T08:51:48.868Z,24.46
2023-05-20T08:52:48.871Z,24.46
2023-05-20T08:53:48.908Z,24.46
2023-05-20T08:54:48.913Z,24.45
2023-05-20T08:55:48.963Z,24.45
2023-05-20T08:56:48.985Z,24.47
2023-05-20T08:57:48.989Z,24.47
2023-05-20T08:58:49.033Z,24.48
2023-05-20T08:59:48.998Z,24.48
2023-05-20T09:00:49.051Z,24.49
2023-05-20T09:01:49.153Z,24.49
2023-05-20T09:02:49.063Z,24.50
2023-05-20T09:03:49.074Z,24.50
2023-05-20T09:04:49.116Z,24.51
2023-05-20T09:05:49.121Z,24.51
2023-05-20T09:06:49.143Z,24.52
2023-05-20T09:07:49.201Z,24.51
2023-05-20T09:08:49.237Z,24.52
2023-05-20T09:09:49.253Z,24.51
2023-05-20T09:10:49.278Z,24.51
2023-05-20T09:11:49.357Z,24.51
2023-05-20T09:12:49.387Z,24.52
2023-05-20T09:13:49.407Z,24.52
2023-05-20T09:14:49.466Z,24.52
2023-05-20T09:15:49.503Z,24.52
2023-05-20T09:16:49.602Z,24.53
2023-05-20T09:17:49.575Z,24.53
2023-05-20T09:18:49.607Z,24.53
2023-05-20T09:19:49.591Z,24.54
2023-05-20T09:20:49.630Z,24.55
2023-05-20T09:21:49.600Z,24.54
2023-05-20T09:22:49.669Z,24.55
2023-05-20T09:23:49.676Z,24.56
2023-05-20T09:24:49.666Z,24.57
2023-05-20T09:25:49.704Z,24.57
2023-05-20T09:26:49.706Z,24.58
2023-05-20T09:27:49.673Z,24.57
2023-05-20T09:28:49.693Z,24.57
2023-05-20T09:29:49.710Z,24.59
2023-05-20T09:30:49.711Z,24.59
2023-05-20T09:31:49.913Z,24.60
2023-05-20T09:32:49.821Z,24.61
2023-05-20T09:33:49.766Z,24.61
2023-05-20T09:34:49.777Z,24.61
2023-05-20T09:35:49.759Z,24.62
2023-05-20T09:36:49.781Z,24.61
2023-05-20T09:37:49.810Z,24.61
2023-05-20T09:38:49.811Z,24.61
2023-05-20T09:39:49.835Z,24.60
2023-05-20T09:40:49.811Z,24.61
2023-05-20T09:41:49.811Z,24.61
2023-05-20T09:42:49.825Z,24.62
2023-05-20T09:43:49.863Z,24.62
2023-05-20T09:44:49.828Z,24.62
2023-05-20T09:45:49.861Z,24.63
2023-05-20T09:46:49.866Z,24.63
2023-05-20T09:47:49.863Z,24.63
2023-05-20T09:48:49.880Z,24.63
2023-05-20T09:49:49.872Z,24.64
2023-05-20T09:50:49.871Z,24.65
2023-05-20T09:51:49.877Z,24.65
2023-05-20T09:52:49.865Z,24.66
2023-05-20T09:53:49.859Z,24.66
2023-05-20T09:54:49.871Z,24.66
2023-05-20T09:55:49.874Z,24.66
2023-05-20T09:56:49.898Z,24.66
2023-05-20T09:57:49.897Z,24.67
2023-05-20T09:58:49.904Z,24.66
2023-05-20T09:59:49.907Z,24.67
2023-05-20T10:00:49.921Z,24.67
2023-05-20T10:01:50.015Z,24.67
2023-05-20T10:02:49.987Z,24.67
2023-05-20T10:03:50.015Z,24.68
2023-05-20T10:04:49.936Z,24.68
2023-05-20T10:05:49.944Z,24.68
2023-05-20T10:06:49.984Z,24.68
2023-05-20T10:07:49.970Z,24.68
2023-05-20T10:08:49.973Z,24.69
2023-05-20T10:09:50.019Z,24.69
2023-05-20T10:10:50.058Z,24.69
2023-05-20T10:11:50.121Z,24.68
2023-05-20T10:12:50.172Z,24.68
2023-05-20T10:13:50.222Z,24.68
2023-05-20T10:14:50.262Z,24.69
2023-05-20T10:15:50.316Z,24.68
2023-05-20T10:16:50.319Z,24.70
2023-05-20T10:17:50.358Z,24.70
2023-05-20T10:18:50.417Z,24.71
2023-05-20T10:19:50.422Z,24.71
2023-05-20T10:20:50.444Z,24.71
2023-05-20T10:21:50.429Z,24.72
2023-05-20T10:22:50.412Z,24.72
2023-05-20T10:23:50.420Z,24.72
2023-05-20T10:24:50.446Z,24.72
2023-05-20T10:25:50.442Z,24.72
2023-05-20T10:26:50.436Z,24.72
2023-05-20T10:27:50.418Z,24.73
2023-05-20T10:28:50.472Z,24.72
2023-05-20T10:29:50.597Z,24.72
2023-05-20T10:30:50.447Z,24.72
2023-05-20T10:31:50.496Z,24.71
2023-05-20T10:32:50.493Z,24.71
2023-05-20T10:33:50.517Z,24.71
2023-05-20T10:34:50.465Z,24.69
2023-05-20T10:35:50.488Z,24.69
2023-05-20T10:36:50.456Z,24.68
2023-05-20T10:37:50.448Z,24.68
2023-05-20T10:38:50.456Z,24.67
2023-05-20T10:39:50.454Z,24.67
2023-05-20T10:40:50.459Z,24.67
2023-05-20T10:41:50.476Z,24.67
2023-05-20T10:42:50.473Z,24.68
2023-05-20T10:43:50.455Z,24.68
2023-05-20T10:44:50.457Z,24.70
2023-05-20T10:45:50.470Z,24.73
2023-05-20T10:47:50.514Z,24.73
2023-05-20T10:48:50.582Z,24.71
2023-05-20T10:49:50.417Z,24.72
2023-05-20T10:50:50.447Z,24.72
2023-05-20T10:51:50.433Z,24.72
2023-05-20T10:52:50.417Z,24.73
2023-05-20T10:53:50.418Z,24.74
2023-05-20T10:54:51.863Z,24.74
2023-05-20T10:55:50.379Z,24.75
2023-05-20T10:56:50.389Z,24.75
2023-05-20T10:57:50.373Z,24.76
2023-05-20T10:58:50.358Z,24.76
2023-05-20T10:59:50.345Z,24.76
2023-05-20T11:00:50.976Z,24.77
2023-05-20T11:01:50.315Z,24.77
2023-05-20T11:02:50.399Z,24.78
2023-05-20T11:03:50.461Z,24.78
2023-05-20T11:04:50.324Z,24.79
2023-05-20T11:05:50.338Z,24.79
2023-05-20T11:06:50.319Z,24.80
2023-05-20T11:07:50.293Z,24.80
2023-05-20T11:08:50.318Z,24.81
2023-05-20T11:09:50.303Z,24.81
2023-05-20T11:10:50.276Z,24.81
2023-05-20T11:11:50.288Z,24.82
2023-05-20T11:12:50.281Z,24.82
2023-05-20T11:13:50.273Z,24.82
2023-05-20T11:14:50.243Z,24.82
2023-05-20T11:15:50.255Z,24.82
2023-05-20T11:16:50.313Z,24.83
2023-05-20T11:17:50.306Z,24.84
2023-05-20T11:18:50.290Z,24.83
2023-05-20T11:19:50.223Z,24.83
2023-05-20T11:20:50.223Z,24.84
2023-05-20T11:21:50.210Z,24.85
2023-05-20T11:22:50.218Z,24.84
2023-05-20T11:23:50.174Z,24.85
2023-05-20T11:24:50.198Z,24.86
2023-05-20T11:25:50.157Z,24.87
2023-05-20T11:26:50.188Z,24.87
2023-05-20T11:27:50.166Z,24.86
2023-05-20T11:28:50.153Z,24.87
2023-05-20T11:29:50.158Z,24.87
2023-05-20T11:30:50.132Z,24.87
2023-05-20T11:31:50.156Z,24.88
2023-05-20T11:32:50.236Z,24.88
2023-05-20T11:33:50.106Z,24.88
2023-05-20T11:34:50.116Z,24.88
2023-05-20T11:35:50.112Z,24.88
2023-05-20T11:36:50.110Z,24.88
2023-05-20T11:37:50.111Z,24.89
2023-05-20T11:38:50.070Z,24.89
2023-05-20T11:39:50.088Z,24.90
2023-05-20T11:40:51.677Z,24.90
2023-05-20T11:41:50.081Z,24.91
2023-05-20T11:42:50.043Z,24.90
2023-05-20T11:43:50.021Z,24.90
2023-05-20T11:44:50.034Z,24.90
2023-05-20T11:45:50.043Z,24.91
2023-05-20T11:46:50.022Z,24.92
2023-05-20T11:47:50.065Z,24.92
2023-05-20T11:48:50.012Z,24.92
2023-05-20T11:49:49.985Z,24.92
2023-05-20T11:50:49.992Z,24.92
2023-05-20T11:51:50.033Z,24.93
2023-05-20T11:52:49.978Z,24.93
2023-05-20T11:53:49.977Z,24.93
2023-05-20T11:54:50.867Z,24.94
2023-05-20T11:55:50.042Z,24.94
2023-05-20T11:56:50.809Z,24.93
2023-05-20T11:57:50.091Z,24.94
2023-05-20T11:58:50.094Z,24.94
2023-05-20T11:59:50.127Z,24.94
2023-05-20T12:00:53.396Z,24.94
2023-05-20T12:01:51.157Z,24.94
2023-05-20T12:02:50.178Z,24.94
2023-05-20T12:03:50.181Z,24.94
2023-05-20T12:04:50.203Z,24.94
2023-05-20T12:05:50.106Z,24.95
2023-05-20T12:06:50.119Z,24.95
2023-05-20T12:07:50.125Z,24.95
2023-05-20T12:08:50.091Z,24.96
2023-05-20T12:09:50.099Z,24.96
2023-05-20T12:10:50.079Z,24.96
2023-05-20T12:11:50.020Z,24.97
2023-05-20T12:12:50.025Z,24.97
2023-05-20T12:13:50.046Z,24.97
2023-05-20T12:14:50.007Z,24.97
2023-05-20T12:15:50.009Z,24.98
2023-05-20T12:16:50.033Z,24.98
2023-05-20T12:17:50.034Z,24.98
2023-05-20T12:18:50.069Z,24.98
2023-05-20T12:19:49.996Z,24.99
2023-05-20T12:20:49.978Z,24.99
2023-05-20T12:21:49.986Z,24.99
2023-05-20T12:22:49.994Z,24.99
2023-05-20T12:23:50.018Z,25.00
2023-05-20T12:24:50.092Z,24.99
2023-05-20T12:25:50.166Z,24.99
2023-05-20T12:26:50.121Z,24.99
2023-05-20T12:27:50.126Z,25.00
2023-05-20T12:28:50.121Z,25.00
2023-05-20T12:29:50.158Z,25.00
2023-05-20T12:30:50.168Z,25.00
2023-05-20T12:31:50.282Z,25.00
2023-05-20T12:32:50.316Z,25.00
2023-05-20T12:33:50.251Z,25.00
2023-05-20T12:34:50.262Z,25.00
2023-05-20T12:35:50.304Z,25.01
2023-05-20T12:36:50.333Z,25.00
2023-05-20T12:37:50.311Z,25.01
2023-05-20T12:38:50.324Z,25.00
2023-05-20T12:39:50.317Z,25.00
2023-05-20T12:40:50.364Z,25.00
2023-05-20T12:41:50.357Z,25.00
2023-05-20T12:42:50.364Z,24.99
2023-05-20T12:43:50.373Z,24.99
2023-05-20T12:44:50.368Z,24.99
2023-05-20T12:45:50.379Z,24.99
2023-05-20T12:46:50.385Z,25.00
2023-05-20T12:47:50.404Z,25.00
2023-05-20T12:48:50.379Z,25.00
2023-05-20T12:49:50.393Z,25.00
2023-05-20T12:50:50.422Z,25.00
2023-05-20T12:51:50.484Z,25.00
2023-05-20T12:52:50.533Z,25.01
2023-05-20T12:53:50.572Z,25.00